CFG2CT LEPA-EDDM
Flight info
| Callsign | CFG2CT |
|---|---|
| Flight time | 1h 39m |
| Altitude | 32000 |
| Route | MEROS DCT LAPIT DCT CHELY DCT LUMAS/N0442F340 DCT UNANA/N0445F300 DCT STP/N0441F360 DCT RAPED DCT PIGOS DCT EKSID DCT NOSTA DCT NOPMU DCT VAKON DCT TAGIP DCT GUNGO DCT TISAX DCT IVKAL T102 NINUR T101 BETOS BETOS1A |
| Aircraft | A320/M-SDE1E3FGHIJ1LORVWXYZ/LB1 |
Departure
| Time | 2026-05-04 14:01 |
|---|---|
| Airport | Palma de Mallorca Airport (LEPA) |
Arrival
| Time | 2026-05-04 15:40 |
|---|---|
| Airport | Munich Airport (EDDM) |
| Time | Latitude | Longitude | Altitude | Speed | Heading |
|---|---|---|---|---|---|
| 2026-05-04 13:21 | 39.54757 | 2.73632 | 38 ft | 0 kts | 58° |
| 2026-05-04 13:48 | 39.54757 | 2.73630 | 38 ft | 2 kts | 58° |
| 2026-05-04 13:49 | 39.54745 | 2.73605 | 36 ft | 2 kts | 58° |
| 2026-05-04 13:49 | 39.54735 | 2.73578 | 38 ft | 4 kts | 94° |
| 2026-05-04 13:49 | 39.54746 | 2.73551 | 36 ft | 4 kts | 144° |
| 2026-05-04 13:49 | 39.54767 | 2.73533 | 38 ft | 4 kts | 149° |
| 2026-05-04 13:50 | 39.54772 | 2.73530 | 38 ft | 0 kts | 149° |
| 2026-05-04 13:52 | 39.54729 | 2.73563 | 38 ft | 7 kts | 149° |
| 2026-05-04 13:52 | 39.54690 | 2.73594 | 37 ft | 9 kts | 148° |
| 2026-05-04 13:52 | 39.54667 | 2.73682 | 36 ft | 14 kts | 61° |
| 2026-05-04 13:53 | 39.54721 | 2.73797 | 38 ft | 15 kts | 58° |
| 2026-05-04 13:53 | 39.54772 | 2.73904 | 36 ft | 13 kts | 58° |
| 2026-05-04 13:53 | 39.54831 | 2.73978 | 38 ft | 11 kts | 23° |
| 2026-05-04 13:54 | 39.54947 | 2.73921 | 38 ft | 8 kts | 329° |
| 2026-05-04 13:54 | 39.54991 | 2.73887 | 38 ft | 7 kts | 329° |
| 2026-05-04 13:54 | 39.55093 | 2.73806 | 38 ft | 12 kts | 328° |
| 2026-05-04 13:55 | 39.55162 | 2.73787 | 38 ft | 10 kts | 26° |
| 2026-05-04 13:55 | 39.55280 | 2.73765 | 38 ft | 10 kts | 329° |
| 2026-05-04 13:55 | 39.55336 | 2.73721 | 38 ft | 9 kts | 328° |
| 2026-05-04 13:56 | 39.55383 | 2.73683 | 38 ft | 7 kts | 328° |
| 2026-05-04 13:56 | 39.55437 | 2.73641 | 38 ft | 13 kts | 329° |
| 2026-05-04 13:56 | 39.55582 | 2.73529 | 37 ft | 11 kts | 329° |
| 2026-05-04 13:57 | 39.55646 | 2.73508 | 38 ft | 9 kts | 14° |
| 2026-05-04 13:57 | 39.55683 | 2.73558 | 38 ft | 8 kts | 57° |
| 2026-05-04 13:58 | 39.55775 | 2.73754 | 38 ft | 10 kts | 59° |
| 2026-05-04 13:58 | 39.55836 | 2.73884 | 37 ft | 7 kts | 58° |
| 2026-05-04 13:58 | 39.55873 | 2.73907 | 38 ft | 5 kts | 1° |
| 2026-05-04 13:59 | 39.55918 | 2.73878 | 37 ft | 9 kts | 329° |
| 2026-05-04 13:59 | 39.55964 | 2.73841 | 38 ft | 7 kts | 328° |
| 2026-05-04 13:59 | 39.55996 | 2.73778 | 36 ft | 3 kts | 240° |
| 2026-05-04 14:00 | 39.55975 | 2.73732 | 38 ft | 14 kts | 239° |
| 2026-05-04 14:00 | 39.55406 | 2.72531 | 42 ft | 137 kts | 238° |
| 2026-05-04 14:00 | 39.54854 | 2.71442 | 476 ft | 147 kts | 233° |
| 2026-05-04 14:01 | 39.54257 | 2.70353 | 1154 ft | 148 kts | 236° |
| 2026-05-04 14:01 | 39.53708 | 2.69174 | 1645 ft | 162 kts | 239° |
| 2026-05-04 14:01 | 39.52417 | 2.66341 | 2351 ft | 198 kts | 239° |
| 2026-05-04 14:02 | 39.51696 | 2.64781 | 2916 ft | 204 kts | 238° |
| 2026-05-04 14:02 | 39.50959 | 2.63201 | 3694 ft | 204 kts | 238° |
| 2026-05-04 14:02 | 39.50216 | 2.61631 | 4507 ft | 204 kts | 234° |
| 2026-05-04 14:02 | 39.49131 | 2.60326 | 4864 ft | 227 kts | 210° |
| 2026-05-04 14:03 | 39.47657 | 2.59344 | 5269 ft | 247 kts | 208° |
| 2026-05-04 14:03 | 39.46098 | 2.58340 | 6026 ft | 253 kts | 208° |
| 2026-05-04 14:03 | 39.44510 | 2.57320 | 6828 ft | 256 kts | 207° |
| 2026-05-04 14:03 | 39.42788 | 2.56687 | 7590 ft | 265 kts | 182° |
| 2026-05-04 14:04 | 39.39532 | 2.59054 | 9131 ft | 288 kts | 140° |
| 2026-05-04 14:04 | 39.38031 | 2.60783 | 9900 ft | 290 kts | 144° |
| 2026-05-04 14:04 | 39.36531 | 2.62564 | 10591 ft | 296 kts | 139° |
| 2026-05-04 14:05 | 39.33406 | 2.66542 | 11141 ft | 338 kts | 141° |
| 2026-05-04 14:05 | 39.31630 | 2.68649 | 11448 ft | 353 kts | 141° |
| 2026-05-04 14:05 | 39.29801 | 2.70824 | 12009 ft | 361 kts | 141° |
| 2026-05-04 14:06 | 39.28025 | 2.73150 | 12647 ft | 370 kts | 130° |
| 2026-05-04 14:06 | 39.26941 | 2.76205 | 13267 ft | 384 kts | 104° |
| 2026-05-04 14:06 | 39.26707 | 2.79670 | 13889 ft | 391 kts | 94° |
| 2026-05-04 14:06 | 39.26664 | 2.83192 | 14448 ft | 396 kts | 91° |
| 2026-05-04 14:07 | 39.26803 | 2.86768 | 14984 ft | 402 kts | 82° |
| 2026-05-04 14:07 | 39.27474 | 2.90303 | 15517 ft | 409 kts | 71° |
| 2026-05-04 14:07 | 39.28606 | 2.93690 | 16072 ft | 414 kts | 61° |
| 2026-05-04 14:07 | 39.30040 | 2.96936 | 16607 ft | 419 kts | 59° |
| 2026-05-04 14:08 | 39.31494 | 3.00219 | 17126 ft | 424 kts | 59° |
| 2026-05-04 14:08 | 39.32955 | 3.03532 | 17721 ft | 427 kts | 59° |
| 2026-05-04 14:08 | 39.34432 | 3.06879 | 18242 ft | 431 kts | 59° |
| 2026-05-04 14:08 | 39.35927 | 3.10263 | 18687 ft | 436 kts | 59° |
| 2026-05-04 14:09 | 39.38964 | 3.17143 | 19622 ft | 445 kts | 59° |
| 2026-05-04 14:09 | 39.40507 | 3.20629 | 20089 ft | 449 kts | 59° |
| 2026-05-04 14:10 | 39.43643 | 3.27692 | 20984 ft | 457 kts | 59° |
| 2026-05-04 14:10 | 39.45261 | 3.31256 | 21446 ft | 461 kts | 59° |
| 2026-05-04 14:10 | 39.46915 | 3.34837 | 21858 ft | 466 kts | 59° |
| 2026-05-04 14:10 | 39.48592 | 3.38445 | 22290 ft | 470 kts | 59° |
| 2026-05-04 14:11 | 39.50284 | 3.42083 | 22708 ft | 473 kts | 59° |
| 2026-05-04 14:11 | 39.53695 | 3.49460 | 23542 ft | 480 kts | 59° |
| 2026-05-04 14:11 | 39.55408 | 3.53193 | 23906 ft | 483 kts | 59° |
| 2026-05-04 14:12 | 39.57122 | 3.56947 | 24251 ft | 485 kts | 59° |
| 2026-05-04 14:12 | 39.58840 | 3.60721 | 24582 ft | 488 kts | 59° |
| 2026-05-04 14:12 | 39.62306 | 3.68345 | 25220 ft | 493 kts | 59° |
| 2026-05-04 14:13 | 39.64058 | 3.72195 | 25537 ft | 496 kts | 60° |
| 2026-05-04 14:13 | 39.65810 | 3.76049 | 25849 ft | 498 kts | 60° |
| 2026-05-04 14:13 | 39.67574 | 3.79935 | 26157 ft | 501 kts | 60° |
| 2026-05-04 14:13 | 39.69346 | 3.83844 | 26463 ft | 503 kts | 60° |
| 2026-05-04 14:14 | 39.71126 | 3.87776 | 26749 ft | 506 kts | 60° |
| 2026-05-04 14:14 | 39.74685 | 3.95636 | 27342 ft | 511 kts | 60° |
| 2026-05-04 14:14 | 39.76491 | 3.99628 | 27614 ft | 513 kts | 60° |
| 2026-05-04 14:15 | 39.80117 | 4.07669 | 28154 ft | 518 kts | 60° |
| 2026-05-04 14:15 | 39.83516 | 4.14165 | 28590 ft | 522 kts | 48° |
| 2026-05-04 14:16 | 39.89022 | 4.20192 | 29041 ft | 520 kts | 27° |
| 2026-05-04 14:16 | 39.92281 | 4.22325 | 29335 ft | 515 kts | 17° |
| 2026-05-04 14:17 | 39.99091 | 4.24614 | 29756 ft | 509 kts | 4° |
| 2026-05-04 14:17 | 40.02592 | 4.25429 | 29960 ft | 511 kts | 4° |
| 2026-05-04 14:17 | 40.09591 | 4.27075 | 30466 ft | 511 kts | 4° |
| 2026-05-04 14:18 | 40.13093 | 4.27905 | 30738 ft | 510 kts | 4° |
| 2026-05-04 14:18 | 40.20071 | 4.29562 | 31286 ft | 509 kts | 4° |
| 2026-05-04 14:19 | 40.27031 | 4.31209 | 31822 ft | 507 kts | 4° |
| 2026-05-04 14:19 | 40.30503 | 4.32030 | 32103 ft | 507 kts | 4° |
| 2026-05-04 14:19 | 40.33972 | 4.32852 | 32398 ft | 506 kts | 4° |
| 2026-05-04 14:19 | 40.37433 | 4.33674 | 32684 ft | 505 kts | 4° |
| 2026-05-04 14:20 | 40.40879 | 4.34490 | 33025 ft | 504 kts | 4° |
| 2026-05-04 14:20 | 40.44330 | 4.35307 | 33287 ft | 504 kts | 4° |
| 2026-05-04 14:20 | 40.47779 | 4.36129 | 33557 ft | 503 kts | 4° |
| 2026-05-04 14:21 | 40.54614 | 4.37757 | 34079 ft | 501 kts | 4° |
| 2026-05-04 14:21 | 40.58046 | 4.38575 | 34325 ft | 501 kts | 4° |
| 2026-05-04 14:21 | 40.61471 | 4.39394 | 34568 ft | 500 kts | 4° |
| 2026-05-04 14:21 | 40.64891 | 4.40213 | 34803 ft | 499 kts | 4° |
| 2026-05-04 14:22 | 40.68296 | 4.41030 | 35027 ft | 498 kts | 4° |
| 2026-05-04 14:22 | 40.71703 | 4.41846 | 35247 ft | 497 kts | 4° |
| 2026-05-04 14:22 | 40.75103 | 4.42663 | 35462 ft | 496 kts | 4° |
| 2026-05-04 14:22 | 40.78499 | 4.43480 | 35667 ft | 495 kts | 4° |
| 2026-05-04 14:23 | 40.85274 | 4.45118 | 35956 ft | 496 kts | 4° |
| 2026-05-04 14:23 | 40.88665 | 4.45935 | 35952 ft | 496 kts | 4° |
| 2026-05-04 14:24 | 40.95464 | 4.47570 | 35952 ft | 496 kts | 4° |
| 2026-05-04 14:24 | 41.02260 | 4.49211 | 35954 ft | 496 kts | 4° |
| 2026-05-04 14:25 | 41.09066 | 4.50872 | 35950 ft | 498 kts | 4° |
| 2026-05-04 14:25 | 41.19304 | 4.53373 | 35957 ft | 499 kts | 4° |
| 2026-05-04 14:26 | 41.26133 | 4.55035 | 35970 ft | 499 kts | 4° |
| 2026-05-04 14:26 | 41.32967 | 4.56718 | 35968 ft | 499 kts | 4° |
| 2026-05-04 14:27 | 41.39800 | 4.58397 | 35952 ft | 499 kts | 4° |
| 2026-05-04 14:27 | 41.46622 | 4.60071 | 35963 ft | 498 kts | 4° |
| 2026-05-04 14:28 | 41.53450 | 4.61748 | 35971 ft | 498 kts | 4° |
| 2026-05-04 14:28 | 41.60213 | 4.63420 | 35973 ft | 498 kts | 4° |
| 2026-05-04 14:29 | 41.73568 | 4.68492 | 35976 ft | 511 kts | 26° |
| 2026-05-04 14:30 | 41.79188 | 4.74371 | 35974 ft | 516 kts | 43° |
| 2026-05-04 14:31 | 41.86856 | 4.84528 | 35974 ft | 516 kts | 43° |
| 2026-05-04 14:32 | 41.97073 | 4.98077 | 35963 ft | 516 kts | 43° |
| 2026-05-04 14:32 | 42.02171 | 5.04856 | 35961 ft | 516 kts | 43° |
| 2026-05-04 14:33 | 42.07263 | 5.11663 | 35972 ft | 516 kts | 43° |
| 2026-05-04 14:33 | 42.12354 | 5.18473 | 36000 ft | 516 kts | 43° |
| 2026-05-04 14:34 | 42.17445 | 5.25298 | 35999 ft | 516 kts | 43° |
| 2026-05-04 14:34 | 42.22480 | 5.32077 | 35989 ft | 515 kts | 43° |
| 2026-05-04 14:35 | 42.27546 | 5.38911 | 35980 ft | 515 kts | 43° |
| 2026-05-04 14:35 | 42.32611 | 5.45757 | 35996 ft | 515 kts | 43° |
| 2026-05-04 14:36 | 42.37683 | 5.52622 | 36001 ft | 515 kts | 43° |
| 2026-05-04 14:36 | 42.42747 | 5.59494 | 35996 ft | 515 kts | 43° |
| 2026-05-04 14:37 | 42.47799 | 5.66367 | 36022 ft | 515 kts | 43° |
| 2026-05-04 14:37 | 42.52844 | 5.73256 | 36002 ft | 515 kts | 43° |
| 2026-05-04 14:38 | 42.57885 | 5.80151 | 36015 ft | 515 kts | 43° |
| 2026-05-04 14:38 | 42.62928 | 5.87057 | 36016 ft | 515 kts | 43° |
| 2026-05-04 14:39 | 42.67968 | 5.93982 | 36026 ft | 515 kts | 43° |
| 2026-05-04 14:39 | 42.73003 | 6.00918 | 36026 ft | 515 kts | 43° |
| 2026-05-04 14:40 | 42.80546 | 6.11338 | 36017 ft | 515 kts | 43° |
| 2026-05-04 14:40 | 42.85593 | 6.18254 | 36046 ft | 514 kts | 38° |
| 2026-05-04 14:41 | 42.91002 | 6.24498 | 36053 ft | 512 kts | 37° |
| 2026-05-04 14:42 | 43.01914 | 6.37001 | 36048 ft | 512 kts | 37° |
| 2026-05-04 14:42 | 43.07358 | 6.43281 | 36063 ft | 512 kts | 37° |
| 2026-05-04 14:43 | 43.12802 | 6.49568 | 36043 ft | 511 kts | 37° |
| 2026-05-04 14:43 | 43.18227 | 6.55852 | 36066 ft | 511 kts | 37° |
| 2026-05-04 14:44 | 43.23287 | 6.62717 | 36056 ft | 515 kts | 51° |
| 2026-05-04 14:44 | 43.27505 | 6.70670 | 36075 ft | 515 kts | 52° |
| 2026-05-04 14:45 | 43.31707 | 6.78634 | 36075 ft | 515 kts | 52° |
| 2026-05-04 14:45 | 43.35901 | 6.86594 | 36054 ft | 515 kts | 52° |
| 2026-05-04 14:46 | 43.40096 | 6.94570 | 36060 ft | 514 kts | 52° |
| 2026-05-04 14:46 | 43.44270 | 7.02544 | 36090 ft | 514 kts | 52° |
| 2026-05-04 14:47 | 43.48439 | 7.10531 | 36082 ft | 513 kts | 52° |
| 2026-05-04 14:47 | 43.52594 | 7.18514 | 36081 ft | 513 kts | 53° |
| 2026-05-04 14:48 | 43.56744 | 7.26512 | 36073 ft | 512 kts | 53° |
| 2026-05-04 14:48 | 43.60880 | 7.34502 | 36090 ft | 512 kts | 53° |
| 2026-05-04 14:49 | 43.64985 | 7.42441 | 36085 ft | 511 kts | 53° |
| 2026-05-04 14:49 | 43.69107 | 7.50446 | 36089 ft | 510 kts | 53° |
| 2026-05-04 14:50 | 43.73217 | 7.58438 | 36088 ft | 511 kts | 53° |
| 2026-05-04 14:50 | 43.77322 | 7.66435 | 36086 ft | 509 kts | 53° |
| 2026-05-04 14:51 | 43.81531 | 7.74305 | 36097 ft | 505 kts | 45° |
| 2026-05-04 14:51 | 43.86741 | 7.80688 | 36118 ft | 499 kts | 34° |
| 2026-05-04 14:52 | 43.92236 | 7.86563 | 36137 ft | 499 kts | 34° |
| 2026-05-04 14:52 | 43.97515 | 7.92831 | 36165 ft | 501 kts | 41° |
| 2026-05-04 14:53 | 44.02536 | 7.99516 | 36151 ft | 499 kts | 40° |
| 2026-05-04 14:53 | 44.07547 | 8.06179 | 36157 ft | 498 kts | 41° |
| 2026-05-04 14:54 | 44.12548 | 8.12863 | 36159 ft | 498 kts | 41° |
| 2026-05-04 14:54 | 44.17500 | 8.19489 | 36165 ft | 497 kts | 41° |
| 2026-05-04 14:55 | 44.22477 | 8.26166 | 36149 ft | 496 kts | 41° |
| 2026-05-04 14:55 | 44.27436 | 8.32836 | 36134 ft | 495 kts | 41° |
| 2026-05-04 14:56 | 44.32379 | 8.39500 | 36135 ft | 494 kts | 41° |
| 2026-05-04 14:56 | 44.37317 | 8.46163 | 36143 ft | 492 kts | 41° |
| 2026-05-04 14:57 | 44.42229 | 8.52826 | 36145 ft | 491 kts | 41° |
| 2026-05-04 14:57 | 44.47130 | 8.59490 | 36146 ft | 491 kts | 41° |
| 2026-05-04 14:58 | 44.52025 | 8.66153 | 36147 ft | 491 kts | 41° |
| 2026-05-04 14:58 | 44.56092 | 8.71703 | 36143 ft | 491 kts | 41° |
| 2026-05-04 14:59 | 44.61797 | 8.79506 | 36135 ft | 489 kts | 41° |
| 2026-05-04 15:00 | 44.69093 | 8.89511 | 36132 ft | 488 kts | 41° |
| 2026-05-04 15:00 | 44.73127 | 8.95057 | 36121 ft | 487 kts | 42° |
| 2026-05-04 15:01 | 44.80409 | 9.05110 | 36110 ft | 487 kts | 42° |
| 2026-05-04 15:01 | 44.85202 | 9.11760 | 36119 ft | 486 kts | 42° |
| 2026-05-04 15:02 | 44.90024 | 9.18453 | 36103 ft | 485 kts | 42° |
| 2026-05-04 15:02 | 44.94834 | 9.25140 | 36109 ft | 484 kts | 42° |
| 2026-05-04 15:03 | 44.99615 | 9.31822 | 36108 ft | 483 kts | 42° |
| 2026-05-04 15:03 | 45.04385 | 9.38498 | 36113 ft | 482 kts | 42° |
| 2026-05-04 15:04 | 45.09134 | 9.45148 | 36109 ft | 481 kts | 42° |
| 2026-05-04 15:04 | 45.13905 | 9.51848 | 36106 ft | 481 kts | 43° |
| 2026-05-04 15:05 | 45.18651 | 9.58533 | 36110 ft | 480 kts | 43° |
| 2026-05-04 15:05 | 45.23350 | 9.65182 | 36120 ft | 480 kts | 43° |
| 2026-05-04 15:06 | 45.28070 | 9.71863 | 36123 ft | 479 kts | 43° |
| 2026-05-04 15:07 | 45.35132 | 9.81882 | 36126 ft | 477 kts | 43° |
| 2026-05-04 15:07 | 45.39821 | 9.88560 | 36095 ft | 477 kts | 43° |
| 2026-05-04 15:08 | 45.44499 | 9.95248 | 36085 ft | 476 kts | 43° |
| 2026-05-04 15:08 | 45.49163 | 10.01951 | 36082 ft | 476 kts | 44° |
| 2026-05-04 15:09 | 45.53741 | 10.08780 | 36087 ft | 476 kts | 45° |
| 2026-05-04 15:09 | 45.58276 | 10.15678 | 36083 ft | 476 kts | 45° |
| 2026-05-04 15:10 | 45.65090 | 10.25972 | 36083 ft | 475 kts | 45° |
| 2026-05-04 15:11 | 45.71903 | 10.36254 | 36112 ft | 474 kts | 45° |
| 2026-05-04 15:11 | 45.76430 | 10.43125 | 36107 ft | 474 kts | 45° |
| 2026-05-04 15:12 | 45.80948 | 10.50018 | 36110 ft | 473 kts | 45° |
| 2026-05-04 15:12 | 45.85454 | 10.56899 | 36119 ft | 473 kts | 45° |
| 2026-05-04 15:13 | 45.89936 | 10.63755 | 36124 ft | 474 kts | 46° |
| 2026-05-04 15:13 | 45.94854 | 10.69975 | 36122 ft | 471 kts | 31° |
| 2026-05-04 15:14 | 46.00573 | 10.74507 | 36113 ft | 469 kts | 26° |
| 2026-05-04 15:14 | 46.06330 | 10.78927 | 36125 ft | 469 kts | 27° |
| 2026-05-04 15:15 | 46.12085 | 10.83366 | 36148 ft | 469 kts | 27° |
| 2026-05-04 15:15 | 46.17831 | 10.87829 | 36160 ft | 469 kts | 27° |
| 2026-05-04 15:16 | 46.26465 | 10.94527 | 36180 ft | 469 kts | 27° |
| 2026-05-04 15:17 | 46.35093 | 11.01236 | 36195 ft | 469 kts | 27° |
| 2026-05-04 15:17 | 46.41016 | 11.05134 | 36083 ft | 467 kts | 14° |
| 2026-05-04 15:17 | 46.44171 | 11.06156 | 36084 ft | 463 kts | 5° |
| 2026-05-04 15:18 | 46.50571 | 11.06484 | 36077 ft | 460 kts | 357° |
| 2026-05-04 15:19 | 46.60182 | 11.06494 | 36069 ft | 460 kts | 357° |
| 2026-05-04 15:19 | 46.69761 | 11.06566 | 36076 ft | 462 kts | 7° |
| 2026-05-04 15:20 | 46.76095 | 11.08258 | 36073 ft | 463 kts | 9° |
| 2026-05-04 15:20 | 46.82376 | 11.09962 | 35873 ft | 461 kts | 8° |
| 2026-05-04 15:21 | 46.85538 | 11.10773 | 35115 ft | 462 kts | 8° |
| 2026-05-04 15:21 | 46.88720 | 11.11556 | 34308 ft | 465 kts | 8° |
| 2026-05-04 15:21 | 46.95153 | 11.13111 | 32475 ft | 471 kts | 8° |
| 2026-05-04 15:22 | 46.98434 | 11.13913 | 31582 ft | 473 kts | 8° |
| 2026-05-04 15:22 | 47.01646 | 11.14709 | 30670 ft | 474 kts | 8° |
| 2026-05-04 15:22 | 47.08095 | 11.16335 | 29352 ft | 465 kts | 8° |
| 2026-05-04 15:23 | 47.11262 | 11.17134 | 28681 ft | 458 kts | 8° |
| 2026-05-04 15:23 | 47.14379 | 11.17923 | 27724 ft | 451 kts | 8° |
| 2026-05-04 15:23 | 47.17452 | 11.18704 | 26806 ft | 445 kts | 8° |
| 2026-05-04 15:23 | 47.20478 | 11.19473 | 25837 ft | 437 kts | 8° |
| 2026-05-04 15:24 | 47.26390 | 11.20961 | 23873 ft | 424 kts | 8° |
| 2026-05-04 15:24 | 47.32145 | 11.22407 | 21868 ft | 414 kts | 8° |
| 2026-05-04 15:25 | 47.34961 | 11.23118 | 20943 ft | 410 kts | 8° |
| 2026-05-04 15:25 | 47.37766 | 11.23830 | 20014 ft | 405 kts | 8° |
| 2026-05-04 15:25 | 47.40543 | 11.24536 | 19266 ft | 405 kts | 9° |
| 2026-05-04 15:26 | 47.46060 | 11.25935 | 18356 ft | 399 kts | 8° |
| 2026-05-04 15:26 | 47.48793 | 11.26630 | 17854 ft | 397 kts | 8° |
| 2026-05-04 15:26 | 47.54194 | 11.28005 | 16860 ft | 390 kts | 9° |
| 2026-05-04 15:27 | 47.56862 | 11.28686 | 16351 ft | 387 kts | 8° |
| 2026-05-04 15:27 | 47.62134 | 11.30029 | 15411 ft | 382 kts | 9° |
| 2026-05-04 15:28 | 47.67323 | 11.31360 | 14444 ft | 376 kts | 9° |
| 2026-05-04 15:28 | 47.69905 | 11.32026 | 13964 ft | 375 kts | 9° |
| 2026-05-04 15:28 | 47.75027 | 11.33348 | 12976 ft | 371 kts | 9° |
| 2026-05-04 15:29 | 47.77558 | 11.34002 | 12488 ft | 368 kts | 9° |
| 2026-05-04 15:30 | 47.87120 | 11.36462 | 10659 ft | 358 kts | 8° |
| 2026-05-04 15:30 | 47.94347 | 11.38332 | 9707 ft | 336 kts | 9° |
| 2026-05-04 15:31 | 47.98785 | 11.39474 | 9421 ft | 312 kts | 6° |
| 2026-05-04 15:31 | 48.00922 | 11.39528 | 9127 ft | 305 kts | 355° |
| 2026-05-04 15:32 | 48.07214 | 11.38913 | 7985 ft | 298 kts | 354° |
| 2026-05-04 15:32 | 48.11319 | 11.38435 | 7239 ft | 293 kts | 354° |
| 2026-05-04 15:33 | 48.15335 | 11.37912 | 6515 ft | 287 kts | 354° |
| 2026-05-04 15:34 | 48.21201 | 11.37076 | 5449 ft | 276 kts | 354° |
| 2026-05-04 15:34 | 48.23094 | 11.36798 | 5199 ft | 269 kts | 354° |
| 2026-05-04 15:34 | 48.26603 | 11.37456 | 4703 ft | 252 kts | 35° |
| 2026-05-04 15:35 | 48.28804 | 11.41279 | 4207 ft | 238 kts | 54° |
| 2026-05-04 15:35 | 48.29754 | 11.43260 | 4049 ft | 230 kts | 54° |
| 2026-05-04 15:35 | 48.30678 | 11.45204 | 4010 ft | 228 kts | 54° |
| 2026-05-04 15:36 | 48.32050 | 11.49401 | 4015 ft | 224 kts | 83° |
| 2026-05-04 15:36 | 48.32224 | 11.51647 | 4008 ft | 211 kts | 83° |
| 2026-05-04 15:36 | 48.32387 | 11.53748 | 4042 ft | 192 kts | 83° |
| 2026-05-04 15:37 | 48.32539 | 11.55675 | 3935 ft | 181 kts | 83° |
| 2026-05-04 15:37 | 48.32685 | 11.57515 | 3753 ft | 175 kts | 83° |
| 2026-05-04 15:37 | 48.32827 | 11.59313 | 3535 ft | 172 kts | 83° |
| 2026-05-04 15:37 | 48.32967 | 11.61082 | 3314 ft | 169 kts | 83° |
| 2026-05-04 15:38 | 48.33104 | 11.62815 | 3107 ft | 167 kts | 83° |
| 2026-05-04 15:38 | 48.33242 | 11.64570 | 2890 ft | 170 kts | 83° |
| 2026-05-04 15:38 | 48.33378 | 11.66300 | 2688 ft | 161 kts | 82° |
| 2026-05-04 15:38 | 48.33504 | 11.67913 | 2467 ft | 153 kts | 83° |
| 2026-05-04 15:39 | 48.33627 | 11.69481 | 2273 ft | 149 kts | 82° |
| 2026-05-04 15:39 | 48.33751 | 11.71017 | 2091 ft | 147 kts | 82° |
| 2026-05-04 15:39 | 48.33983 | 11.74070 | 1671 ft | 148 kts | 81° |
| 2026-05-04 15:40 | 48.34104 | 11.75568 | 1493 ft | 139 kts | 81° |
| 2026-05-04 15:40 | 48.34193 | 11.76748 | 1475 ft | 75 kts | 83° |
| 2026-05-04 15:40 | 48.34244 | 11.77287 | 1485 ft | 42 kts | 80° |
| 2026-05-04 15:40 | 48.34348 | 11.77601 | 1479 ft | 23 kts | 49° |
| 2026-05-04 15:41 | 48.34430 | 11.77763 | 1478 ft | 12 kts | 54° |
| 2026-05-04 15:41 | 48.34441 | 11.77787 | 1485 ft | 2 kts | 54° |
| 2026-05-04 15:41 | 48.34447 | 11.77799 | 1474 ft | 1 kts | 54° |
| 2026-05-04 15:41 | 48.34452 | 11.77810 | 1479 ft | 1 kts | 54° |
| 2026-05-04 15:42 | 48.34457 | 11.77821 | 1476 ft | 1 kts | 54° |
| 2026-05-04 15:42 | 48.34462 | 11.77830 | 1485 ft | 2 kts | 54° |
| 2026-05-04 15:42 | 48.34476 | 11.77859 | 1482 ft | 8 kts | 52° |
| 2026-05-04 15:42 | 48.34517 | 11.77910 | 1479 ft | 6 kts | 24° |
| 2026-05-04 15:43 | 48.34555 | 11.77915 | 1485 ft | 5 kts | 356° |
| 2026-05-04 15:43 | 48.34583 | 11.77912 | 1471 ft | 3 kts | 354° |
| 2026-05-04 15:43 | 48.34602 | 11.77910 | 1478 ft | 2 kts | 354° |
| 2026-05-04 15:43 | 48.34611 | 11.77908 | 1473 ft | 1 kts | 354° |
| 2026-05-04 15:44 | 48.34613 | 11.77908 | 1474 ft | 0 kts | 354° |
| 2026-05-04 15:44 | 48.34619 | 11.77907 | 1475 ft | 3 kts | 354° |
| 2026-05-04 15:44 | 48.34673 | 11.77899 | 1482 ft | 10 kts | 354° |
| 2026-05-04 15:44 | 48.34745 | 11.77887 | 1483 ft | 11 kts | 354° |
| 2026-05-04 15:45 | 48.34821 | 11.77875 | 1480 ft | 11 kts | 354° |
| 2026-05-04 15:45 | 48.34901 | 11.77861 | 1485 ft | 12 kts | 352° |
| 2026-05-04 15:45 | 48.34984 | 11.77845 | 1479 ft | 12 kts | 353° |
| 2026-05-04 15:45 | 48.35071 | 11.77830 | 1485 ft | 13 kts | 353° |
| 2026-05-04 15:46 | 48.35150 | 11.77823 | 1479 ft | 11 kts | 8° |
| 2026-05-04 15:46 | 48.35184 | 11.77899 | 1485 ft | 9 kts | 85° |
| 2026-05-04 15:46 | 48.35189 | 11.77983 | 1482 ft | 7 kts | 83° |
| 2026-05-04 15:46 | 48.35195 | 11.78056 | 1482 ft | 7 kts | 83° |
| 2026-05-04 15:47 | 48.35198 | 11.78120 | 1482 ft | 6 kts | 93° |
| 2026-05-04 15:47 | 48.35185 | 11.78173 | 1475 ft | 5 kts | 123° |
| 2026-05-04 15:47 | 48.35151 | 11.78198 | 1482 ft | 6 kts | 167° |
| 2026-05-04 15:47 | 48.35099 | 11.78206 | 1475 ft | 8 kts | 174° |
| 2026-05-04 15:48 | 48.35044 | 11.78214 | 1485 ft | 8 kts | 174° |
| 2026-05-04 15:48 | 48.34994 | 11.78223 | 1472 ft | 7 kts | 173° |
| 2026-05-04 15:48 | 48.34911 | 11.78241 | 1483 ft | 5 kts | 159° |
| 2026-05-04 15:49 | 48.34893 | 11.78282 | 1485 ft | 5 kts | 96° |
| 2026-05-04 15:49 | 48.34896 | 11.78335 | 1485 ft | 5 kts | 84° |
| 2026-05-04 15:49 | 48.34899 | 11.78380 | 1485 ft | 4 kts | 83° |
| 2026-05-04 15:49 | 48.34899 | 11.78383 | 1485 ft | 0 kts | 83° |